Time;durP1;ratioP1;P1;durP2;ratioP2;P2;SDS_P1;SDS_P2;PMS_P1;PMS_P2;Temp;Humidity;BMP_temperature;BMP_pressure;BME280_temperature;BME280_humidity;BME280_pressure;Samples;Min_cycle;Max_cycle;Signal;HPM_P1;HPM_P2
2021/07/05 00:01:08;;;;;;;;;;;;;;;;;;4977931;28;19926;-86
2021/07/05 00:04:51;;;;;;;;;;;;;;;;;;4970029;28;19933;-88
2021/07/05 00:11:31;;;;;;;;;;;;;;;;;;4958415;28;19930;-86
2021/07/05 00:15:04;;;;;;;;;;;;;;;;;;4992153;28;19926;-86
2021/07/05 00:18:21;;;;;;;;;;;;;;;;;;4984599;28;20420;-86
2021/07/05 00:21:22;;;;;;;;;;;;;;;;;;4987202;28;19933;-88
2021/07/05 00:24:19;;;;;;;;;;;;;;;;;;4971112;28;19934;-88
2021/07/05 00:30:19;;;;;;;;;;;;;;;;;;4984775;28;19937;-87
2021/07/05 00:33:21;;;;;;;;;;;;;;;;;;4960563;28;19925;-89
2021/07/05 00:40:19;;;;;;;;;;;;;;;;;;4971026;28;19953;-89
2021/07/05 00:43:26;;;;;;;;;;;;;;;;;;4977819;28;19926;-89
2021/07/05 00:46:18;;;;;;;;;;;;;;;;;;4975649;28;20816;-86
2021/07/05 00:53:33;;;;;;;;;;;;;;;;;;4988764;28;19945;-89
2021/07/05 00:57:01;;;;;;;;;;;;;;;;;;4965062;28;20209;-89
2021/07/05 01:08:08;;;;;;;;;;;;;;;;;;4987864;28;19933;-89
2021/07/05 01:11:21;;;;;;;;;;;;;;;;;;4978126;28;20795;-87
2021/07/05 01:14:14;;;;;;;;;;;;;;;;;;4997991;28;19921;-88
2021/07/05 01:17:38;;;;;;;;;;;;;;;;;;4994254;28;19918;-89
2021/07/05 01:24:49;;;;;;;;;;;;;;;;;;4977797;28;20388;-90
2021/07/05 01:30:58;;;;;;;;;;;;;;;;;;4986405;28;19926;-89
2021/07/05 01:58:20;;;;;;;;;;;;;;;;;;4933676;28;20325;-86
2021/07/05 02:01:18;;;;;;;;;;;;;;;;;;4926152;28;19934;-88
2021/07/05 02:03:48;;;;;;;;;;;;;;;;;;4968544;28;21509;-87
2021/07/05 02:06:17;;;;;;;;;;;;;;;;;;4940825;28;19933;-88
2021/07/05 02:09:09;;;;;;;;;;;;;;;;;;4939023;28;20439;-87
2021/07/05 02:11:57;;;;;;;;;;;;;;;;;;4954540;28;20393;-88
2021/07/05 02:15:00;;;;;;;;;;;;;;;;;;4949357;28;19934;-87
2021/07/05 02:17:54;;;;;;;;;;;;;;;;;;4938555;28;19926;-88
2021/07/05 02:20:28;;;;;;;;;;;;;;;;;;4938929;28;19934;-87
2021/07/05 02:22:58;;;;;;;;;;;;;;;;;;4944089;28;20068;-87
2021/07/05 02:25:27;;;;;;;;;;;;;;;;;;4936301;28;19926;-88
2021/07/05 02:27:56;;;;;;;;;;;;;;;;;;4966678;28;19930;-88
2021/07/05 02:30:26;;;;;;;;;;;;;;;;;;4929978;28;19941;-87
2021/07/05 02:32:59;;;;;;;;;;;;;;;;;;4979155;28;19926;-87
2021/07/05 02:35:29;;;;;;;;;;;;;;;;;;4936823;28;19937;-86
2021/07/05 02:37:59;;;;;;;;;;;;;;;;;;4946247;28;19931;-85
2021/07/05 02:40:35;;;;;;;;;;;;;;;;;;4976600;28;20384;-88
2021/07/05 02:43:08;;;;;;;;;;;;;;;;;;4944012;28;19933;-86
2021/07/05 02:45:42;;;;;;;;;;;;;;;;;;4969539;28;19926;-88
2021/07/05 02:48:21;;;;;;;;;;;;;;;;;;4961306;28;19941;-87
2021/07/05 02:50:55;;;;;;;;;;;;;;;;;;4948744;28;19934;-86
2021/07/05 02:53:48;;;;;;;;;;;;;;;;;;4982974;28;19926;-86
2021/07/05 02:56:18;;;;;;;;;;;;;;;;;;4929388;28;19930;-88
2021/07/05 02:58:50;;;;;;;;;;;;;;;;;;4938041;28;19926;-87
2021/07/05 03:01:27;;;;;;;;;;;;;;;;;;4935367;28;19930;-85
2021/07/05 03:07:04;;;;;;;;;;;;;;;;;;4930423;28;19933;-86
2021/07/05 03:09:47;;;;;;;;;;;;;;;;;;4949594;28;19937;-85
2021/07/05 03:12:36;;;;;;;;;;;;;;;;;;4959418;28;19926;-87
2021/07/05 03:15:17;;;;;;;;;;;;;;;;;;4944725;28;20294;-86
2021/07/05 03:18:18;;;;;;;;;;;;;;;;;;4954769;28;19926;-88
2021/07/05 03:21:36;;;;;;;;;;;;;;;;;;4964410;28;19956;-87
2021/07/05 03:24:31;;;;;;;;;;;;;;;;;;4978898;28;21125;-88
2021/07/05 03:30:10;;;;;;;;;;;;;;;;;;4928595;28;19934;-87
2021/07/05 03:35:24;;;;;;;;;;;;;;;;;;4933104;28;20305;-86
2021/07/05 03:37:59;;;;;;;;;;;;;;;;;;4929402;28;19933;-86
2021/07/05 03:40:29;;;;;;;;;;;;;;;;;;4956431;28;19926;-87
2021/07/05 03:43:00;;;;;;;;;;;;;;;;;;4929005;28;19926;-87
2021/07/05 03:46:01;;;;;;;;;;;;;;;;;;4946999;28;20459;-88
2021/07/05 03:57:53;;;;;;;;;;;;;;;;;;4911319;28;20317;-85
2021/07/05 04:06:08;;;;;;;;;;;;;;;;;;4918881;28;19942;-88
2021/07/05 04:37:55;;;;;;;;;;;;;;;;;;4931472;28;20640;-84
2021/07/05 04:41:01;;;;;;;;;;;;;;;;;;4903559;28;19927;-85
2021/07/05 04:44:11;;;;;;;;;;;;;;;;;;4910435;28;19992;-86
2021/07/05 04:46:48;;;;;;;;;;;;;;;;;;4924569;28;20436;-89
2021/07/05 04:49:35;;;;;;;;;;;;;;;;;;4925108;28;19931;-86
2021/07/05 04:55:40;;;;;;;;;;;;;;;;;;4949169;28;19946;-86
2021/07/05 04:58:34;;;;;;;;;;;;;;;;;;4926699;28;19931;-87
2021/07/05 05:01:23;;;;;;;;;;;;;;;;;;4914512;29;19931;-88
2021/07/05 05:04:36;;;;;;;;;;;;;;;;;;4924023;28;20414;-86
2021/07/05 05:07:37;;;;;;;;;;;;;;;;;;4939092;28;19927;-89
2021/07/05 05:19:39;;;;;;;;;;;;;;;;;;4979007;28;19927;-89
2021/07/05 05:23:05;;;;;;;;;;;;;;;;;;5005747;28;19934;-89
2021/07/05 05:26:02;;;;;;;;;;;;;;;;;;4973161;28;19926;-89
2021/07/05 05:28:56;;;;;;;;;;;;;;;;;;4970273;28;19930;-89
2021/07/05 05:32:13;;;;;;;;;;;;;;;;;;4964114;28;20011;-89
2021/07/05 05:34:41;;;;;;;;;;;;;;;;;;4939020;28;20333;-88
2021/07/05 05:37:22;;;;;;;;;;;;;;;;;;4964232;28;19926;-89
2021/07/05 05:40:15;;;;;;;;;;;;;;;;;;4979751;28;19941;-89
2021/07/05 05:43:27;;;;;;;;;;;;;;;;;;4957571;28;19944;-89
2021/07/05 05:46:20;;;;;;;;;;;;;;;;;;4952699;28;19945;-88
2021/07/05 05:49:05;;;;;;;;;;;;;;;;;;4948140;28;19932;-88
2021/07/05 05:51:51;;;;;;;;;;;;;;;;;;4986809;28;20294;-87
2021/07/05 05:54:22;;;;;;;;;;;;;;;;;;4984170;28;20420;-88
2021/07/05 06:00:35;;;;;;;;;;;;;;;;;;4970113;28;19933;-89
2021/07/05 06:03:06;;;;;;;;;;;;;;;;;;5005568;28;19929;-86
2021/07/05 06:05:35;;;;;;;;;;;;;;;;;;4991139;28;19920;-89
2021/07/05 06:08:04;;;;;;;;;;;;;;;;;;4986388;28;20114;-89
2021/07/05 06:10:36;;;;;;;;;;;;;;;;;;4988560;28;19924;-88
2021/07/05 06:13:05;;;;;;;;;;;;;;;;;;4961316;28;19938;-89
2021/07/05 06:15:36;;;;;;;;;;;;;;;;;;4981561;28;19918;-89
2021/07/05 06:18:19;;;;;;;;;;;;;;;;;;4993312;28;19925;-90
2021/07/05 06:20:57;;;;;;;;;;;;;;;;;;4976935;28;19927;-88
2021/07/05 06:26:35;;;;;;;;;;;;;;;;;;4952227;28;20428;-85
2021/07/05 06:29:06;;;;;;;;;;;;;;;;;;4961219;28;19926;-88
2021/07/05 06:31:37;;;;;;;;;;;;;;;;;;4982407;28;19937;-86
2021/07/05 06:34:05;;;;;;;;;;;;;;;;;;4971413;28;21479;-86
2021/07/05 06:36:35;;;;;;;;;;;;;;;;;;4974156;28;19930;-87
2021/07/05 06:39:04;;;;;;;;;;;;;;;;;;4978443;28;19941;-87
2021/07/05 06:41:33;;;;;;;;;;;;;;;;;;4982595;28;19942;-84
2021/07/05 06:44:01;;;;;;;;;;;;;;;;;;4990505;28;20377;-85
2021/07/05 06:46:30;;;;;;;;;;;;;;;;;;4967384;28;19926;-87
2021/07/05 06:49:01;;;;;;;;;;;;;;;;;;4966969;28;19927;-85
2021/07/05 06:51:59;;;;;;;;;;;;;;;;;;4986141;28;19926;-86
2021/07/05 06:55:29;;;;;;;;;;;;;;;;;;4947776;28;19926;-85
2021/07/05 06:58:58;;;;;;;;;;;;;;;;;;4962295;28;19933;-86
2021/07/05 07:02:00;;;;;;;;;;;;;;;;;;4958913;28;19937;-85
2021/07/05 07:05:11;;;;;;;;;;;;;;;;;;4967771;28;19938;-85
2021/07/05 07:25:10;;;;;;;;;;;;;;;;;;4839600;29;20311;-86
2021/07/05 07:28:11;;;;;;;;;;;;;;;;;;4855600;29;19935;-85
2021/07/05 07:31:06;;;;;;;;;;;;;;;;;;4829784;29;20583;-84
2021/07/05 07:33:36;;;;;;;;;;;;;;;;;;4859518;29;19932;-86
2021/07/05 07:36:05;;;;;;;;;;;;;;;;;;4828856;29;19928;-85
2021/07/05 07:38:38;;;;;;;;;;;;;;;;;;4884262;28;19932;-85
2021/07/05 07:41:08;;;;;;;;;;;;;;;;;;4883143;28;20431;-85
2021/07/05 07:43:36;;;;;;;;;;;;;;;;;;4901781;28;19931;-85
2021/07/05 07:46:05;;;;;;;;;;;;;;;;;;4886835;28;20300;-86
2021/07/05 07:48:33;;;;;;;;;;;;;;;;;;4889190;28;19927;-87
2021/07/05 07:51:05;;;;;;;;;;;;;;;;;;4892968;28;19928;-86
2021/07/05 07:53:42;;;;;;;;;;;;;;;;;;4888498;28;19951;-86
2021/07/05 07:56:16;;;;;;;;;;;;;;;;;;4912891;28;19927;-87
2021/07/05 07:59:01;;;;;;;;;;;;;;;;;;4995108;28;19932;-86
2021/07/05 08:01:30;;;;;;;;;;;;;;;;;;4960161;28;19931;-87
2021/07/05 08:04:04;;;;;;;;;;;;;;;;;;4962904;28;19934;-86
2021/07/05 08:06:33;;;;;;;;;;;;;;;;;;4995324;28;20078;-86
2021/07/05 08:09:05;;;;;;;;;;;;;;;;;;4978443;28;19922;-86
2021/07/05 08:11:36;;;;;;;;;;;;;;;;;;5007754;28;19922;-87
2021/07/05 08:14:05;;;;;;;;;;;;;;;;;;4973150;28;19934;-86
2021/07/05 08:16:33;;;;;;;;;;;;;;;;;;4940311;28;20408;-86
2021/07/05 08:19:01;;;;;;;;;;;;;;;;;;4973216;28;20055;-86
2021/07/05 08:21:30;;;;;;;;;;;;;;;;;;4992642;28;19927;-86
2021/07/05 08:23:58;;;;;;;;;;;;;;;;;;4959152;28;19926;-86
2021/07/05 08:26:27;;;;;;;;;;;;;;;;;;4956138;28;19934;-85
2021/07/05 08:28:57;;;;;;;;;;;;;;;;;;4958725;28;19941;-86
2021/07/05 08:31:25;;;;;;;;;;;;;;;;;;4959622;28;20389;-86
2021/07/05 08:33:54;;;;;;;;;;;;;;;;;;4959802;28;19938;-85
2021/07/05 08:36:23;;;;;;;;;;;;;;;;;;4959248;28;19926;-86
2021/07/05 08:38:51;;;;;;;;;;;;;;;;;;4963237;28;20381;-86
2021/07/05 08:41:19;;;;;;;;;;;;;;;;;;4973076;28;20305;-86
2021/07/05 08:43:48;;;;;;;;;;;;;;;;;;4961852;28;19969;-85
2021/07/05 08:46:20;;;;;;;;;;;;;;;;;;4976721;28;19955;-86
2021/07/05 08:51:56;;;;;;;;;;;;;;;;;;4959715;28;19925;-87
2021/07/05 08:54:24;;;;;;;;;;;;;;;;;;4958772;28;19933;-87
2021/07/05 08:57:36;;;;;;;;;;;;;;;;;;4982102;28;19934;-87
2021/07/05 09:03:29;;;;;;;;;;;;;;;;;;4949141;28;19930;-87
2021/07/05 09:06:07;;;;;;;;;;;;;;;;;;4970979;28;19942;-88
2021/07/05 09:08:38;;;;;;;;;;;;;;;;;;4975427;28;19933;-86
2021/07/05 09:11:07;;;;;;;;;;;;;;;;;;4977536;28;20017;-86
2021/07/05 09:13:45;;;;;;;;;;;;;;;;;;4975054;28;19933;-88
2021/07/05 09:16:15;;;;;;;;;;;;;;;;;;4971450;28;19930;-88
2021/07/05 09:18:47;;;;;;;;;;;;;;;;;;4985485;28;21463;-87
2021/07/05 09:21:19;;;;;;;;;;;;;;;;;;4978508;28;19926;-88
2021/07/05 09:23:50;;;;;;;;;;;;;;;;;;4948672;28;19937;-85
2021/07/05 09:26:19;;;;;;;;;;;;;;;;;;4959039;28;20326;-85
2021/07/05 09:28:50;;;;;;;;;;;;;;;;;;4957168;28;19926;-84
2021/07/05 09:31:28;;;;;;;;;;;;;;;;;;4950502;28;19926;-85
2021/07/05 09:33:57;;;;;;;;;;;;;;;;;;4961099;28;19926;-85
2021/07/05 09:36:26;;;;;;;;;;;;;;;;;;4971550;28;19930;-87
2021/07/05 09:38:55;;;;;;;;;;;;;;;;;;4987914;28;20408;-87
2021/07/05 09:41:25;;;;;;;;;;;;;;;;;;4957984;28;19934;-87
2021/07/05 09:43:56;;;;;;;;;;;;;;;;;;4972511;28;19927;-85
2021/07/05 09:46:37;;;;;;;;;;;;;;;;;;4983752;28;19973;-85
2021/07/05 09:49:10;;;;;;;;;;;;;;;;;;5000006;28;19941;-84
2021/07/05 09:51:40;;;;;;;;;;;;;;;;;;4986864;28;20663;-84
2021/07/05 09:54:08;;;;;;;;;;;;;;;;;;4988620;28;20305;-84
2021/07/05 09:56:36;;;;;;;;;;;;;;;;;;5003662;28;19930;-83
2021/07/05 09:59:16;;;;;;;;;;;;;;;;;;4948169;28;19927;-86
2021/07/05 10:01:45;;;;;;;;;;;;;;;;;;4960290;28;19926;-86
2021/07/05 10:04:22;;;;;;;;;;;;;;;;;;5008760;28;19910;-86
2021/07/05 10:06:50;;;;;;;;;;;;;;;;;;4982271;28;19930;-85
2021/07/05 10:09:19;;;;;;;;;;;;;;;;;;4979925;28;19934;-85
2021/07/05 10:11:48;;;;;;;;;;;;;;;;;;4947146;28;20024;-83
2021/07/05 10:14:21;;;;;;;;;;;;;;;;;;4956431;28;19948;-86
2021/07/05 10:16:50;;;;;;;;;;;;;;;;;;4982562;28;19936;-83
2021/07/05 10:19:20;;;;;;;;;;;;;;;;;;4949069;28;19935;-84
2021/07/05 10:21:48;;;;;;;;;;;;;;;;;;4961805;28;19933;-85
2021/07/05 10:24:16;;;;;;;;;;;;;;;;;;4962230;28;19926;-83
2021/07/05 10:26:45;;;;;;;;;;;;;;;;;;4966558;28;19961;-85
2021/07/05 10:29:13;;;;;;;;;;;;;;;;;;4975724;28;19926;-83
2021/07/05 10:31:41;;;;;;;;;;;;;;;;;;4951040;28;19931;-84
2021/07/05 10:34:10;;;;;;;;;;;;;;;;;;4936753;28;19942;-84
2021/07/05 10:36:40;;;;;;;;;;;;;;;;;;4935727;28;19934;-83
2021/07/05 10:39:09;;;;;;;;;;;;;;;;;;4978544;28;19927;-83
2021/07/05 10:41:38;;;;;;;;;;;;;;;;;;4973727;28;19942;-83
2021/07/05 10:44:08;;;;;;;;;;;;;;;;;;4985321;28;19930;-83
2021/07/05 10:46:42;;;;;;;;;;;;;;;;;;4961539;28;19949;-84
2021/07/05 10:49:25;;;;;;;;;;;;;;;;;;4972788;28;20319;-83
2021/07/05 10:51:55;;;;;;;;;;;;;;;;;;4968100;28;19926;-83
2021/07/05 10:54:38;;;;;;;;;;;;;;;;;;4998220;28;19926;-82
2021/07/05 10:57:07;;;;;;;;;;;;;;;;;;4969722;28;19926;-82
2021/07/05 10:59:40;;;;;;;;;;;;;;;;;;4977353;28;19926;-85
2021/07/05 11:02:27;;;;;;;;;;;;;;;;;;4968340;28;19933;-85
2021/07/05 11:04:55;;;;;;;;;;;;;;;;;;4975241;28;19933;-84
2021/07/05 11:07:27;;;;;;;;;;;;;;;;;;4971930;28;19926;-85
2021/07/05 11:09:56;;;;;;;;;;;;;;;;;;4986610;28;19933;-83
2021/07/05 11:12:28;;;;;;;;;;;;;;;;;;4983070;28;19934;-83
2021/07/05 11:14:57;;;;;;;;;;;;;;;;;;4989758;28;19943;-83
2021/07/05 11:17:26;;;;;;;;;;;;;;;;;;4953704;28;19930;-84
2021/07/05 11:19:55;;;;;;;;;;;;;;;;;;4965525;28;19927;-85
2021/07/05 11:22:26;;;;;;;;;;;;;;;;;;4952913;28;20612;-83
2021/07/05 11:24:59;;;;;;;;;;;;;;;;;;4987776;28;20139;-83
2021/07/05 11:27:31;;;;;;;;;;;;;;;;;;4958558;28;19933;-84
2021/07/05 11:30:19;;;;;;;;;;;;;;;;;;4964469;28;19927;-84
2021/07/05 11:32:48;;;;;;;;;;;;;;;;;;4971000;28;19952;-83
2021/07/05 11:35:33;;;;;;;;;;;;;;;;;;4973826;28;19938;-84
2021/07/05 11:38:04;;;;;;;;;;;;;;;;;;4965111;28;19930;-83
2021/07/05 11:43:54;;;;;;;;;;;;;;;;;;4988460;28;20089;-82
2021/07/05 11:46:53;;;;;;;;;;;;;;;;;;4977399;28;19934;-83
2021/07/05 11:53:18;;;;;;;;;;;;;;;;;;4965616;28;19937;-83
2021/07/05 11:55:59;;;;;;;;;;;;;;;;;;5000838;28;20194;-83
2021/07/05 11:58:28;;;;;;;;;;;;;;;;;;4992652;28;19927;-83
2021/07/05 12:00:56;;;;;;;;;;;;;;;;;;4968382;28;20283;-84
2021/07/05 12:03:25;;;;;;;;;;;;;;;;;;4983085;28;20400;-84
2021/07/05 12:06:00;;;;;;;;;;;;;;;;;;4960601;28;19934;-83
2021/07/05 12:08:30;;;;;;;;;;;;;;;;;;4952322;28;20361;-84
2021/07/05 12:10:59;;;;;;;;;;;;;;;;;;4967456;28;19941;-84
2021/07/05 12:13:28;;;;;;;;;;;;;;;;;;4972608;28;19934;-83
2021/07/05 12:15:58;;;;;;;;;;;;;;;;;;4983051;28;20375;-83
2021/07/05 12:18:27;;;;;;;;;;;;;;;;;;4962536;28;19953;-83
2021/07/05 12:20:58;;;;;;;;;;;;;;;;;;4963584;28;19952;-84
2021/07/05 12:23:34;;;;;;;;;;;;;;;;;;4974593;28;20404;-83
2021/07/05 12:26:13;;;;;;;;;;;;;;;;;;4972947;28;19942;-83
2021/07/05 12:28:56;;;;;;;;;;;;;;;;;;4964778;28;19926;-84
2021/07/05 12:31:24;;;;;;;;;;;;;;;;;;4995981;28;19930;-84
2021/07/05 12:33:53;;;;;;;;;;;;;;;;;;4970254;28;19930;-83
2021/07/05 12:36:21;;;;;;;;;;;;;;;;;;4977566;28;19933;-83
2021/07/05 12:39:00;;;;;;;;;;;;;;;;;;4966999;28;19934;-83
2021/07/05 12:41:29;;;;;;;;;;;;;;;;;;4982460;28;19926;-83
2021/07/05 12:44:09;;;;;;;;;;;;;;;;;;4959175;28;19938;-83
2021/07/05 12:46:37;;;;;;;;;;;;;;;;;;5007642;28;19925;-83
2021/07/05 12:49:06;;;;;;;;;;;;;;;;;;4979117;28;19930;-83
2021/07/05 12:51:34;;;;;;;;;;;;;;;;;;4966494;28;19933;-83
2021/07/05 12:54:11;;;;;;;;;;;;;;;;;;4968146;28;19940;-83
2021/07/05 12:56:40;;;;;;;;;;;;;;;;;;5003678;28;19930;-84
2021/07/05 12:59:18;;;;;;;;;;;;;;;;;;5004451;28;19917;-84
2021/07/05 13:01:46;;;;;;;;;;;;;;;;;;4991792;28;19910;-83
2021/07/05 13:04:15;;;;;;;;;;;;;;;;;;4995702;28;19933;-83
2021/07/05 13:06:53;;;;;;;;;;;;;;;;;;5016174;28;19930;-83
2021/07/05 13:09:29;;;;;;;;;;;;;;;;;;4994224;28;19914;-83
2021/07/05 13:12:06;;;;;;;;;;;;;;;;;;5018411;28;19988;-83
2021/07/05 13:14:44;;;;;;;;;;;;;;;;;;5002695;27;19914;-83
2021/07/05 13:18:16;;;;;;;;;;;;;;;;;;5003457;28;19930;-83
2021/07/05 13:20:48;;;;;;;;;;;;;;;;;;4953553;28;19941;-83
2021/07/05 13:23:32;;;;;;;;;;;;;;;;;;4976088;28;19933;-82
2021/07/05 13:26:09;;;;;;;;;;;;;;;;;;5003632;28;20490;-83
2021/07/05 13:28:45;;;;;;;;;;;;;;;;;;4968563;28;19930;-82
2021/07/05 13:31:28;;;;;;;;;;;;;;;;;;4987041;28;19929;-82
2021/07/05 13:34:02;;;;;;;;;;;;;;;;;;5002053;28;20432;-83
2021/07/05 13:36:35;;;;;;;;;;;;;;;;;;5007548;28;20397;-82
2021/07/05 13:39:11;;;;;;;;;;;;;;;;;;4953571;28;20337;-82
2021/07/05 13:41:59;;;;;;;;;;;;;;;;;;4971210;28;19933;-82
2021/07/05 13:44:34;;;;;;;;;;;;;;;;;;4959900;28;19930;-82
2021/07/05 13:47:17;;;;;;;;;;;;;;;;;;4958286;28;19926;-83
2021/07/05 13:50:08;;;;;;;;;;;;;;;;;;4965078;28;19926;-82
2021/07/05 13:52:39;;;;;;;;;;;;;;;;;;4956554;28;19938;-83
2021/07/05 13:55:25;;;;;;;;;;;;;;;;;;4973420;28;19927;-83
2021/07/05 13:57:54;;;;;;;;;;;;;;;;;;4956647;28;19930;-82
2021/07/05 14:00:40;;;;;;;;;;;;;;;;;;4966657;28;19927;-82
2021/07/05 14:03:43;;;;;;;;;;;;;;;;;;4955254;28;20005;-82
2021/07/05 14:06:25;;;;;;;;;;;;;;;;;;4961296;28;20285;-82
2021/07/05 14:09:05;;;;;;;;;;;;;;;;;;4944488;28;19930;-83
2021/07/05 14:11:41;;;;;;;;;;;;;;;;;;4961338;28;19934;-83
2021/07/05 14:14:49;;;;;;;;;;;;;;;;;;5005213;28;20385;-82
2021/07/05 14:17:17;;;;;;;;;;;;;;;;;;4951227;28;20320;-82
2021/07/05 14:19:46;;;;;;;;;;;;;;;;;;4982413;28;19930;-82
2021/07/05 14:22:19;;;;;;;;;;;;;;;;;;4956783;28;19930;-81
2021/07/05 14:24:47;;;;;;;;;;;;;;;;;;4960442;28;19937;-82
2021/07/05 14:27:15;;;;;;;;;;;;;;;;;;4967740;28;19934;-82
2021/07/05 14:29:43;;;;;;;;;;;;;;;;;;4944300;28;20766;-82
2021/07/05 14:32:11;;;;;;;;;;;;;;;;;;4959818;28;20337;-82
2021/07/05 14:34:40;;;;;;;;;;;;;;;;;;4978090;28;20452;-82
2021/07/05 14:37:08;;;;;;;;;;;;;;;;;;4950889;28;19934;-83
2021/07/05 14:39:38;;;;;;;;;;;;;;;;;;4946610;28;20470;-82
2021/07/05 14:42:06;;;;;;;;;;;;;;;;;;4933603;28;21433;-82
2021/07/05 14:44:34;;;;;;;;;;;;;;;;;;4968084;28;19933;-83
2021/07/05 14:47:02;;;;;;;;;;;;;;;;;;4987818;28;19926;-82
2021/07/05 14:49:30;;;;;;;;;;;;;;;;;;4967370;28;20409;-82
2021/07/05 14:51:59;;;;;;;;;;;;;;;;;;4973970;28;19933;-83
2021/07/05 14:54:27;;;;;;;;;;;;;;;;;;4969421;28;19933;-82
2021/07/05 14:56:57;;;;;;;;;;;;;;;;;;4970694;28;19926;-82
2021/07/05 14:59:25;;;;;;;;;;;;;;;;;;4975801;28;19926;-83
2021/07/05 15:01:53;;;;;;;;;;;;;;;;;;4985304;28;20297;-82
2021/07/05 15:04:21;;;;;;;;;;;;;;;;;;4947877;28;19926;-83
2021/07/05 15:06:50;;;;;;;;;;;;;;;;;;4972101;28;19926;-82
2021/07/05 15:09:22;;;;;;;;;;;;;;;;;;4954452;28;20408;-82
2021/07/05 15:11:51;;;;;;;;;;;;;;;;;;4946973;28;19930;-82
2021/07/05 15:14:20;;;;;;;;;;;;;;;;;;4981842;28;20100;-84
2021/07/05 15:16:49;;;;;;;;;;;;;;;;;;4983516;28;19934;-84
2021/07/05 15:19:18;;;;;;;;;;;;;;;;;;5009477;28;19931;-83
2021/07/05 15:21:46;;;;;;;;;;;;;;;;;;4968124;28;19926;-83
2021/07/05 15:24:15;;;;;;;;;;;;;;;;;;4978421;28;19934;-83
2021/07/05 15:26:44;;;;;;;;;;;;;;;;;;4989963;28;19930;-84
2021/07/05 15:29:29;;;;;;;;;;;;;;;;;;4961998;28;19930;-84
2021/07/05 15:32:27;;;;;;;;;;;;;;;;;;4958608;28;19937;-84
2021/07/05 15:35:01;;;;;;;;;;;;;;;;;;4963887;28;20382;-83
2021/07/05 15:41:00;;;;;;;;;;;;;;;;;;4962776;28;19930;-83
2021/07/05 16:03:15;;;;;;;;;;;;;;;;;;4968088;28;19926;-84
2021/07/05 16:05:57;;;;;;;;;;;;;;;;;;4968264;28;19926;-84
2021/07/05 16:08:38;;;;;;;;;;;;;;;;;;4975968;28;19926;-84
2021/07/05 16:11:06;;;;;;;;;;;;;;;;;;4967221;28;19934;-84
2021/07/05 16:13:36;;;;;;;;;;;;;;;;;;4950532;28;19930;-86
2021/07/05 16:16:05;;;;;;;;;;;;;;;;;;4968079;28;19931;-84
2021/07/05 16:18:33;;;;;;;;;;;;;;;;;;4961884;28;19930;-84
2021/07/05 16:21:03;;;;;;;;;;;;;;;;;;4946589;28;19930;-84
2021/07/05 16:23:31;;;;;;;;;;;;;;;;;;4960186;28;19934;-84
2021/07/05 16:25:59;;;;;;;;;;;;;;;;;;4974679;28;19930;-85
2021/07/05 16:28:27;;;;;;;;;;;;;;;;;;4978568;28;20439;-84
2021/07/05 16:30:56;;;;;;;;;;;;;;;;;;4961910;28;19934;-84
2021/07/05 16:33:24;;;;;;;;;;;;;;;;;;5004363;28;19926;-85
2021/07/05 16:35:53;;;;;;;;;;;;;;;;;;4976591;28;19933;-84
2021/07/05 16:38:23;;;;;;;;;;;;;;;;;;4986827;28;19926;-84
2021/07/05 16:40:51;;;;;;;;;;;;;;;;;;4983885;28;19935;-84
2021/07/05 16:43:20;;;;;;;;;;;;;;;;;;4954644;28;20424;-85
2021/07/05 16:45:48;;;;;;;;;;;;;;;;;;4960315;28;19934;-85
2021/07/05 16:48:17;;;;;;;;;;;;;;;;;;4958503;28;19926;-84
2021/07/05 16:51:03;;;;;;;;;;;;;;;;;;5009692;28;19933;-83
2021/07/05 16:53:35;;;;;;;;;;;;;;;;;;4968258;28;19934;-84
2021/07/05 16:56:04;;;;;;;;;;;;;;;;;;4973122;28;19934;-83
2021/07/05 16:58:32;;;;;;;;;;;;;;;;;;4957976;28;19934;-84
2021/07/05 17:01:03;;;;;;;;;;;;;;;;;;4982812;28;19926;-83
2021/07/05 17:03:32;;;;;;;;;;;;;;;;;;4967630;28;20389;-83
2021/07/05 17:06:02;;;;;;;;;;;;;;;;;;4974213;28;19930;-83
2021/07/05 17:08:30;;;;;;;;;;;;;;;;;;4967273;28;19926;-84
2021/07/05 17:11:00;;;;;;;;;;;;;;;;;;4991068;28;19945;-84
2021/07/05 17:13:28;;;;;;;;;;;;;;;;;;4963230;28;19926;-83
2021/07/05 17:15:57;;;;;;;;;;;;;;;;;;4981487;28;19930;-84
2021/07/05 17:18:25;;;;;;;;;;;;;;;;;;4951305;28;20939;-83
2021/07/05 17:20:53;;;;;;;;;;;;;;;;;;4978479;28;19926;-83
2021/07/05 17:23:22;;;;;;;;;;;;;;;;;;4955349;28;19933;-84
2021/07/05 17:25:50;;;;;;;;;;;;;;;;;;4983993;28;19926;-84
2021/07/05 17:28:20;;;;;;;;;;;;;;;;;;4954953;28;19926;-84
2021/07/05 17:30:48;;;;;;;;;;;;;;;;;;4960601;28;19941;-83
2021/07/05 17:33:17;;;;;;;;;;;;;;;;;;4982226;28;19930;-83
2021/07/05 17:35:45;;;;;;;;;;;;;;;;;;5011390;28;19910;-83
2021/07/05 17:38:14;;;;;;;;;;;;;;;;;;4989943;28;19914;-83
2021/07/05 17:40:42;;;;;;;;;;;;;;;;;;4987563;28;19932;-83
2021/07/05 17:43:10;;;;;;;;;;;;;;;;;;4969335;28;19948;-83
2021/07/05 17:45:40;;;;;;;;;;;;;;;;;;4960948;28;19926;-83
2021/07/05 17:48:08;;;;;;;;;;;;;;;;;;4987462;28;19926;-83
2021/07/05 17:50:36;;;;;;;;;;;;;;;;;;4975054;28;19926;-83
2021/07/05 17:53:05;;;;;;;;;;;;;;;;;;4989591;28;19926;-84
2021/07/05 17:55:33;;;;;;;;;;;;;;;;;;4959944;28;19933;-85
2021/07/05 17:58:01;;;;;;;;;;;;;;;;;;4992380;28;20534;-84
2021/07/05 18:00:29;;;;;;;;;;;;;;;;;;4968823;28;20465;-83
2021/07/05 18:02:59;;;;;;;;;;;;;;;;;;4966326;28;19934;-83
2021/07/05 18:05:27;;;;;;;;;;;;;;;;;;4989851;28;19930;-84
2021/07/05 18:07:58;;;;;;;;;;;;;;;;;;4971301;28;19933;-84
2021/07/05 18:10:27;;;;;;;;;;;;;;;;;;4980593;28;19926;-83
2021/07/05 18:12:56;;;;;;;;;;;;;;;;;;4968291;28;20381;-84
2021/07/05 18:15:25;;;;;;;;;;;;;;;;;;4970125;28;19934;-85
2021/07/05 18:17:54;;;;;;;;;;;;;;;;;;4956981;28;19926;-84
2021/07/05 18:20:24;;;;;;;;;;;;;;;;;;4951791;28;19928;-84
2021/07/05 18:22:52;;;;;;;;;;;;;;;;;;4951688;28;20407;-84
2021/07/05 18:25:21;;;;;;;;;;;;;;;;;;4968239;28;19926;-84
2021/07/05 18:27:50;;;;;;;;;;;;;;;;;;4949745;28;19937;-84
2021/07/05 18:30:21;;;;;;;;;;;;;;;;;;4968037;28;19931;-84
2021/07/05 18:32:50;;;;;;;;;;;;;;;;;;4968033;28;20412;-84
2021/07/05 18:35:19;;;;;;;;;;;;;;;;;;4983334;28;19953;-84
2021/07/05 18:37:48;;;;;;;;;;;;;;;;;;4976578;28;19938;-84
2021/07/05 18:40:18;;;;;;;;;;;;;;;;;;4972719;28;19926;-83
2021/07/05 18:42:46;;;;;;;;;;;;;;;;;;4977993;28;19926;-83
2021/07/05 18:45:15;;;;;;;;;;;;;;;;;;4985427;28;19930;-83
2021/07/05 18:47:44;;;;;;;;;;;;;;;;;;5004724;28;20492;-84
2021/07/05 18:50:13;;;;;;;;;;;;;;;;;;4965457;28;19927;-84
2021/07/05 18:52:41;;;;;;;;;;;;;;;;;;4992754;28;19930;-84
2021/07/05 18:55:13;;;;;;;;;;;;;;;;;;4967010;28;19927;-84
2021/07/05 18:57:41;;;;;;;;;;;;;;;;;;4954725;28;20317;-85
2021/07/05 19:00:12;;;;;;;;;;;;;;;;;;4949150;28;19927;-85
2021/07/05 19:02:45;;;;;;;;;;;;;;;;;;4986480;28;19932;-85
2021/07/05 19:05:13;;;;;;;;;;;;;;;;;;4969706;28;20289;-85
2021/07/05 19:07:42;;;;;;;;;;;;;;;;;;4983153;28;19937;-86
2021/07/05 19:10:12;;;;;;;;;;;;;;;;;;4959076;28;19937;-85
2021/07/05 19:12:40;;;;;;;;;;;;;;;;;;4974892;28;19934;-83
2021/07/05 19:15:09;;;;;;;;;;;;;;;;;;4973229;28;19926;-83
2021/07/05 19:17:37;;;;;;;;;;;;;;;;;;4986225;28;19934;-84
2021/07/05 19:20:06;;;;;;;;;;;;;;;;;;4958478;28;19934;-86
2021/07/05 19:22:34;;;;;;;;;;;;;;;;;;4955434;28;20466;-84
2021/07/05 19:25:03;;;;;;;;;;;;;;;;;;4962773;28;19927;-84
2021/07/05 19:27:33;;;;;;;;;;;;;;;;;;4973240;28;19930;-82
2021/07/05 19:30:02;;;;;;;;;;;;;;;;;;4970522;28;19931;-84
2021/07/05 19:32:30;;;;;;;;;;;;;;;;;;4984483;28;19926;-84
2021/07/05 19:34:58;;;;;;;;;;;;;;;;;;4964359;28;19940;-85
2021/07/05 19:37:27;;;;;;;;;;;;;;;;;;4963550;28;20412;-88
2021/07/05 19:39:55;;;;;;;;;;;;;;;;;;4991204;28;19924;-85
2021/07/05 19:42:24;;;;;;;;;;;;;;;;;;4968478;28;19926;-86
2021/07/05 19:44:53;;;;;;;;;;;;;;;;;;4963609;28;19933;-86
2021/07/05 19:47:22;;;;;;;;;;;;;;;;;;4975653;28;19933;-84
2021/07/05 19:49:50;;;;;;;;;;;;;;;;;;4973938;28;19926;-87
2021/07/05 19:52:18;;;;;;;;;;;;;;;;;;4974616;28;19948;-87
2021/07/05 19:54:46;;;;;;;;;;;;;;;;;;4974087;28;19937;-84
2021/07/05 19:57:17;;;;;;;;;;;;;;;;;;4957311;28;20412;-87
2021/07/05 19:59:46;;;;;;;;;;;;;;;;;;4969279;28;19934;-88
2021/07/05 20:02:15;;;;;;;;;;;;;;;;;;4971098;28;20405;-86
2021/07/05 20:04:43;;;;;;;;;;;;;;;;;;4988606;28;19920;-87
2021/07/05 20:07:12;;;;;;;;;;;;;;;;;;4987796;28;19910;-88
2021/07/05 20:09:42;;;;;;;;;;;;;;;;;;4994901;28;19918;-86
2021/07/05 20:12:10;;;;;;;;;;;;;;;;;;4990974;28;19922;-87
2021/07/05 20:14:40;;;;;;;;;;;;;;;;;;5015084;28;19917;-87
2021/07/05 20:17:16;;;;;;;;;;;;;;;;;;5001001;28;19924;-87
2021/07/05 20:19:54;;;;;;;;;;;;;;;;;;4984634;28;20454;-86
2021/07/05 20:22:22;;;;;;;;;;;;;;;;;;4977876;28;19926;-85
2021/07/05 20:24:51;;;;;;;;;;;;;;;;;;4973485;28;19937;-88
2021/07/05 20:27:20;;;;;;;;;;;;;;;;;;4971368;28;19929;-86
2021/07/05 20:29:49;;;;;;;;;;;;;;;;;;4983283;28;19937;-85
2021/07/05 20:32:19;;;;;;;;;;;;;;;;;;4969714;28;20163;-87
2021/07/05 20:34:50;;;;;;;;;;;;;;;;;;4970581;28;19937;-87
2021/07/05 20:37:20;;;;;;;;;;;;;;;;;;4950204;28;19934;-87
2021/07/05 20:39:48;;;;;;;;;;;;;;;;;;4987643;28;20016;-87
2021/07/05 20:42:16;;;;;;;;;;;;;;;;;;4952631;28;19934;-87
2021/07/05 20:44:46;;;;;;;;;;;;;;;;;;4967706;28;19937;-86
2021/07/05 20:47:15;;;;;;;;;;;;;;;;;;4957108;28;19934;-88